Monday, August 20, 2018, 1:15 AM EDT
Back to Local

KMPV, Knapp State Airport

Location: Barre, VT, United States Lat: 44.2
Local Time: 1:15 AM EDT ( 5:15 GMT) Lon: -72.567
Time Zone: US/Eastern Elev: 1164 ft

Show me the last for .
Show Decoded

2018-08-20 00:51 METAR KMPV 200451Z AUTO 18003KT 10SM CLR 17/15 A3020 RMK AO2 SLP222 T01670150
                 402500128 =
2018-08-19 23:51 METAR KMPV 200351Z AUTO 19005KT 10SM SCT049 18/15 A3019 RMK AO2 SLP220 T01780150
                 =
2018-08-19 22:51 METAR KMPV 200251Z AUTO 00000KT 10SM BKN050 18/15 A3018 RMK AO2 SLP217 T01780150
                 51013 =
2018-08-19 21:51 METAR KMPV 200151Z AUTO 00000KT 10SM FEW060 17/16 A3018 RMK AO2 SLP218 T01720156
                 =
2018-08-19 20:51 METAR KMPV 200051Z AUTO 00000KT 10SM FEW060 19/17 A3016 RMK AO2 SLP213 T01940172
                 =
2018-08-19 19:51 METAR KMPV 192351Z AUTO 19004KT 10SM OVC060 20/17 A3014 RMK AO2 SLP206 T02000172
                 10250 20200 52013 =
2018-08-19 18:51 METAR KMPV 192251Z AUTO 00000KT 10SM BKN060 22/17 A3013 RMK AO2 SLP200 T02220167
                 =
2018-08-19 17:51 METAR KMPV 192151Z AUTO 00000KT 10SM OVC055 24/13 A3012 RMK AO2 SLP196 T02440133
                 =
2018-08-19 16:51 METAR KMPV 192051Z AUTO VRB03KT 10SM CLR 24/13 A3010 RMK AO2 SLP191 T02440133
                 56002 =
2018-08-19 15:51 METAR KMPV 191951Z AUTO 16006KT 10SM CLR 24/13 A3010 RMK AO2 SLP191 T02440133 =
2018-08-19 14:51 METAR KMPV 191851Z AUTO VRB03KT 10SM CLR 24/13 A3010 RMK AO2 SLP191 T02440128 =
2018-08-19 13:51 METAR KMPV 191751Z AUTO 32007KT 10SM FEW045 SCT055 24/13 A3011 RMK AO2 SLP194
                 T02440133 10244 20133 58008 =
2018-08-19 12:51 METAR KMPV 191651Z AUTO VRB06KT 10SM CLR 24/14 A3013 RMK AO2 SLP199 T02390139 =
2018-08-19 11:51 METAR KMPV 191551Z AUTO 04004KT 10SM CLR 22/14 A3013 RMK AO2 SLP201 T02220144 =
2018-08-19 10:51 METAR KMPV 191451Z AUTO VRB04KT 10SM CLR 20/16 A3013 RMK AO2 SLP203 T02000156
                 50006 $ =
2018-08-19 09:51 METAR KMPV 191351Z AUTO 00000KT 10SM CLR 16/16 A3014 RMK AO2 SLP205 T01610156 $
                 =
2018-08-19 09:33 METAR KMPV 191333Z AUTO 00000KT 10SM FEW003 15/15 A3014 RMK AO2 T01500150 $ =
2018-08-19 09:16 METAR KMPV 191316Z AUTO 00000KT 7SM BKN001 14/14 A3013 RMK AO2 T01440144 $ =
2018-08-19 09:08 METAR KMPV 191308Z AUTO 00000KT 2SM BR OVC001 14/14 A3013 RMK AO2 T01390139 $ =
2018-08-19 09:06 METAR KMPV 191306Z AUTO 00000KT 1 1/4SM BR OVC001 14/14 A3013 RMK AO2 T01390139
                 $ =
2018-08-19 08:51 METAR KMPV 191251Z AUTO 00000KT 1/4SM FG VV001 14/14 A3013 RMK AO2 SLP201
                 T01390139 $ =
2018-08-19 07:51 METAR KMPV 191151Z AUTO 00000KT 1/4SM FG VV001 13/13 A3011 RMK AO2 SLP198
                 T01330133 10139 20128 51018 $ =
2018-08-19 06:51 METAR KMPV 191051Z AUTO 00000KT 1/4SM FG VV001 13/13 A3010 RMK AO2 SLP193
                 T01330133 $ =
2018-08-19 05:51 METAR KMPV 190951Z AUTO 00000KT 1/4SM FG VV001 13/13 A3008 RMK AO2 SLP186
                 T01330133 $ =
2018-08-19 04:51 METAR KMPV 190851Z AUTO 00000KT 1/4SM FG VV001 14/14 A3006 RMK AO2 SLP179
                 T01390139 53009 $ =
2018-08-19 03:51 METAR KMPV 190751Z AUTO 00000KT 1/4SM FG VV001 14/14 A3005 RMK AO2 SLP175
                 T01390139 $ =
2018-08-19 02:51 METAR KMPV 190651Z AUTO 00000KT 1/4SM FG VV001 14/14 A3004 RMK AO2 SLP171
                 T01390139 $ =
2018-08-19 01:51 METAR KMPV 190551Z AUTO 00000KT 1/4SM FG VV001 13/13 A3003 RMK AO2 SLP170
                 T01330133 10178 20128 53006 $ =
2018-08-19 01:23 METAR KMPV 190523Z AUTO 00000KT 1/4SM FG VV001 13/13 A3003 RMK AO2 T01280128 =

Support USWX by starting your Amazon purchase here.